SBOSBO CWL / EGFF
Speedbird OnlineSpeedbird Online CWL / EGFF

Cardiff International Airport
21:28 12.7°C

Location Cardiff, United Kingdom
Latitude: 51.39670181274414
Longitude: -3.343329906463623
Web Airport Website | Wikipedia
Altitude 67 Meter / 220 Feet
Distance 241 KM / 150 Miles
from London.
Time Zone UTC +1 hours (Europe/London)
Codes IATA: CWL
ICAO: EGFF
Runways
RunwayLength (m)Surface
122354Asphalt
302354Asphalt
Radio
TypeDescriptionFrequency
APPCardiff App119.15
APPCardiff Radar125.85
ATISATIS132.475
Radar133.6
TWRCardiff Twr133.1
Live ATC
METAR EGFF 241950Z AUTO 02007KT 9999 NCD 13/07 Q1021
TAF TAF EGFF 241701Z 2418/2518 01008KT 9999 FEW045 PROB30 2503/2508 7000 BECMG 2512/2515 27012KT
Weather As Of 24 Sep 2022 21:28
Description Overcast clouds
Wind 13 km/h from North (20°)
Cloud Cover 100%
Precipitation Rain: none, Snow: none
Sunrise 07:02
Sunset 19:08
Lounges 51° Business and Executive Lounge, Main Terminal
Rotations During the last 90 days there were
16 flights from LHR
4 flights from LGW
15 flights to LHR
4 flights to LGW


© 2017-2022 Speedbird Online